sensor_id;sensor_type;location;lat;lon;timestamp;P1;durP1;ratioP1;P2;durP2;ratioP2
7377;SDS011;3730;50.856;12.776;2022-09-25T00:01:10;7.53;;;6.90;;
7377;SDS011;3730;50.856;12.776;2022-09-25T00:03:36;8.63;;;7.47;;
7377;SDS011;3730;50.856;12.776;2022-09-25T00:06:03;7.67;;;6.97;;
7377;SDS011;3730;50.856;12.776;2022-09-25T00:08:30;8.40;;;6.40;;
7377;SDS011;3730;50.856;12.776;2022-09-25T00:10:57;6.63;;;6.03;;
7377;SDS011;3730;50.856;12.776;2022-09-25T00:13:23;6.80;;;6.20;;
7377;SDS011;3730;50.856;12.776;2022-09-25T00:15:53;6.97;;;6.37;;
7377;SDS011;3730;50.856;12.776;2022-09-25T00:18:20;7.13;;;6.43;;
7377;SDS011;3730;50.856;12.776;2022-09-25T00:21:07;7.00;;;6.30;;
7377;SDS011;3730;50.856;12.776;2022-09-25T00:23:35;8.17;;;7.47;;
7377;SDS011;3730;50.856;12.776;2022-09-25T00:26:01;7.80;;;7.00;;
7377;SDS011;3730;50.856;12.776;2022-09-25T00:28:29;7.93;;;7.17;;
7377;SDS011;3730;50.856;12.776;2022-09-25T00:30:56;9.37;;;8.00;;
7377;SDS011;3730;50.856;12.776;2022-09-25T00:33:22;10.37;;;7.60;;
7377;SDS011;3730;50.856;12.776;2022-09-25T00:35:48;8.73;;;7.80;;
7377;SDS011;3730;50.856;12.776;2022-09-25T00:38:15;7.90;;;7.10;;
7377;SDS011;3730;50.856;12.776;2022-09-25T00:40:41;8.83;;;7.93;;
7377;SDS011;3730;50.856;12.776;2022-09-25T00:43:13;8.90;;;8.03;;
7377;SDS011;3730;50.856;12.776;2022-09-25T00:45:40;8.00;;;7.20;;
7377;SDS011;3730;50.856;12.776;2022-09-25T00:48:11;8.50;;;7.60;;
7377;SDS011;3730;50.856;12.776;2022-09-25T00:50:43;9.03;;;7.90;;
7377;SDS011;3730;50.856;12.776;2022-09-25T00:53:13;9.17;;;7.80;;
7377;SDS011;3730;50.856;12.776;2022-09-25T00:55:41;9.10;;;8.30;;
7377;SDS011;3730;50.856;12.776;2022-09-25T00:58:08;8.97;;;8.10;;
7377;SDS011;3730;50.856;12.776;2022-09-25T01:00:36;8.77;;;7.97;;
7377;SDS011;3730;50.856;12.776;2022-09-25T01:03:02;10.00;;;8.77;;
7377;SDS011;3730;50.856;12.776;2022-09-25T01:05:33;10.87;;;7.80;;
7377;SDS011;3730;50.856;12.776;2022-09-25T01:08:00;9.50;;;8.50;;
7377;SDS011;3730;50.856;12.776;2022-09-25T01:10:27;9.87;;;8.33;;
7377;SDS011;3730;50.856;12.776;2022-09-25T01:12:53;7.70;;;7.00;;
7377;SDS011;3730;50.856;12.776;2022-09-25T01:15:21;9.83;;;8.90;;
7377;SDS011;3730;50.856;12.776;2022-09-25T01:18:00;11.60;;;10.47;;
7377;SDS011;3730;50.856;12.776;2022-09-25T01:30:33;10.47;;;9.43;;
7377;SDS011;3730;50.856;12.776;2022-09-25T01:33:12;12.00;;;10.37;;
7377;SDS011;3730;50.856;12.776;2022-09-25T01:35:53;10.43;;;9.33;;
7377;SDS011;3730;50.856;12.776;2022-09-25T01:38:31;12.17;;;10.47;;
7377;SDS011;3730;50.856;12.776;2022-09-25T01:41:09;10.73;;;9.73;;
7377;SDS011;3730;50.856;12.776;2022-09-25T01:43:37;11.93;;;10.00;;
7377;SDS011;3730;50.856;12.776;2022-09-25T01:46:07;11.33;;;10.13;;
7377;SDS011;3730;50.856;12.776;2022-09-25T01:48:36;11.30;;;10.10;;
7377;SDS011;3730;50.856;12.776;2022-09-25T01:51:17;12.97;;;10.20;;
7377;SDS011;3730;50.856;12.776;2022-09-25T01:53:47;14.20;;;10.57;;
7377;SDS011;3730;50.856;12.776;2022-09-25T01:56:17;10.17;;;9.17;;
7377;SDS011;3730;50.856;12.776;2022-09-25T01:58:50;10.67;;;9.57;;
7377;SDS011;3730;50.856;12.776;2022-09-25T02:01:18;10.97;;;9.73;;
7377;SDS011;3730;50.856;12.776;2022-09-25T02:03:48;11.30;;;10.07;;
7377;SDS011;3730;50.856;12.776;2022-09-25T02:06:16;10.37;;;9.37;;
7377;SDS011;3730;50.856;12.776;2022-09-25T02:08:48;11.07;;;10.07;;
7377;SDS011;3730;50.856;12.776;2022-09-25T02:11:17;10.77;;;9.67;;
7377;SDS011;3730;50.856;12.776;2022-09-25T02:16:14;11.37;;;10.27;;
7377;SDS011;3730;50.856;12.776;2022-09-25T02:18:42;11.07;;;9.97;;
7377;SDS011;3730;50.856;12.776;2022-09-25T02:21:49;12.60;;;11.07;;
7377;SDS011;3730;50.856;12.776;2022-09-25T02:24:32;11.77;;;10.53;;
7377;SDS011;3730;50.856;12.776;2022-09-25T02:26:59;11.30;;;10.20;;
7377;SDS011;3730;50.856;12.776;2022-09-25T02:29:25;10.93;;;9.80;;
7377;SDS011;3730;50.856;12.776;2022-09-25T02:31:58;10.57;;;9.47;;
7377;SDS011;3730;50.856;12.776;2022-09-25T02:34:27;10.93;;;8.83;;
7377;SDS011;3730;50.856;12.776;2022-09-25T02:36:53;10.17;;;9.07;;
7377;SDS011;3730;50.856;12.776;2022-09-25T02:39:20;9.10;;;8.20;;
7377;SDS011;3730;50.856;12.776;2022-09-25T02:44:40;10.30;;;9.30;;
7377;SDS011;3730;50.856;12.776;2022-09-25T02:54:45;9.20;;;8.30;;
7377;SDS011;3730;50.856;12.776;2022-09-25T02:59:43;12.00;;;10.03;;
7377;SDS011;3730;50.856;12.776;2022-09-25T03:02:11;10.10;;;9.13;;
7377;SDS011;3730;50.856;12.776;2022-09-25T03:04:38;11.03;;;9.87;;
7377;SDS011;3730;50.856;12.776;2022-09-25T03:07:05;10.63;;;9.53;;
7377;SDS011;3730;50.856;12.776;2022-09-25T03:09:33;10.73;;;8.77;;
7377;SDS011;3730;50.856;12.776;2022-09-25T03:12:00;10.63;;;9.50;;
7377;SDS011;3730;50.856;12.776;2022-09-25T03:14:27;10.40;;;9.07;;
7377;SDS011;3730;50.856;12.776;2022-09-25T03:16:53;11.13;;;10.03;;
7377;SDS011;3730;50.856;12.776;2022-09-25T03:19:21;11.37;;;10.17;;
7377;SDS011;3730;50.856;12.776;2022-09-25T03:21:47;12.80;;;10.37;;
7377;SDS011;3730;50.856;12.776;2022-09-25T03:24:15;12.07;;;10.87;;
7377;SDS011;3730;50.856;12.776;2022-09-25T03:26:41;11.80;;;10.00;;
7377;SDS011;3730;50.856;12.776;2022-09-25T03:29:08;11.17;;;9.97;;
7377;SDS011;3730;50.856;12.776;2022-09-25T03:31:34;10.77;;;9.40;;
7377;SDS011;3730;50.856;12.776;2022-09-25T03:34:00;9.70;;;8.80;;
7377;SDS011;3730;50.856;12.776;2022-09-25T03:36:27;12.83;;;10.27;;
7377;SDS011;3730;50.856;12.776;2022-09-25T03:38:54;10.97;;;9.97;;
7377;SDS011;3730;50.856;12.776;2022-09-25T03:41:24;11.83;;;10.30;;
7377;SDS011;3730;50.856;12.776;2022-09-25T03:43:50;11.13;;;10.13;;
7377;SDS011;3730;50.856;12.776;2022-09-25T03:46:28;11.20;;;10.07;;
7377;SDS011;3730;50.856;12.776;2022-09-25T03:48:54;11.50;;;10.33;;
7377;SDS011;3730;50.856;12.776;2022-09-25T03:51:21;12.33;;;10.97;;
7377;SDS011;3730;50.856;12.776;2022-09-25T03:53:48;11.33;;;10.23;;
7377;SDS011;3730;50.856;12.776;2022-09-25T03:56:15;11.13;;;9.90;;
7377;SDS011;3730;50.856;12.776;2022-09-25T03:58:42;13.07;;;11.67;;
7377;SDS011;3730;50.856;12.776;2022-09-25T04:01:08;15.37;;;11.90;;
7377;SDS011;3730;50.856;12.776;2022-09-25T04:03:35;13.67;;;12.37;;
7377;SDS011;3730;50.856;12.776;2022-09-25T04:06:02;13.93;;;12.50;;
7377;SDS011;3730;50.856;12.776;2022-09-25T04:08:31;13.20;;;11.93;;
7377;SDS011;3730;50.856;12.776;2022-09-25T04:10:58;14.13;;;12.73;;
7377;SDS011;3730;50.856;12.776;2022-09-25T04:13:25;13.90;;;11.57;;
7377;SDS011;3730;50.856;12.776;2022-09-25T04:15:54;14.30;;;12.33;;
7377;SDS011;3730;50.856;12.776;2022-09-25T04:18:20;15.17;;;13.57;;
7377;SDS011;3730;50.856;12.776;2022-09-25T04:20:46;15.47;;;13.83;;
7377;SDS011;3730;50.856;12.776;2022-09-25T04:23:12;17.00;;;14.60;;
7377;SDS011;3730;50.856;12.776;2022-09-25T04:25:38;12.73;;;11.53;;
7377;SDS011;3730;50.856;12.776;2022-09-25T04:28:04;12.70;;;11.50;;
7377;SDS011;3730;50.856;12.776;2022-09-25T04:30:31;12.67;;;11.37;;
7377;SDS011;3730;50.856;12.776;2022-09-25T04:32:58;15.23;;;13.63;;
7377;SDS011;3730;50.856;12.776;2022-09-25T04:35:43;12.97;;;11.63;;
7377;SDS011;3730;50.856;12.776;2022-09-25T04:38:09;13.07;;;11.57;;
7377;SDS011;3730;50.856;12.776;2022-09-25T04:40:35;13.40;;;12.10;;
7377;SDS011;3730;50.856;12.776;2022-09-25T04:43:02;16.93;;;13.63;;
7377;SDS011;3730;50.856;12.776;2022-09-25T04:45:29;15.17;;;13.63;;
7377;SDS011;3730;50.856;12.776;2022-09-25T04:47:55;17.50;;;15.70;;
7377;SDS011;3730;50.856;12.776;2022-09-25T04:50:23;15.60;;;14.00;;
7377;SDS011;3730;50.856;12.776;2022-09-25T04:52:50;16.53;;;14.83;;
7377;SDS011;3730;50.856;12.776;2022-09-25T04:55:17;14.67;;;13.07;;
7377;SDS011;3730;50.856;12.776;2022-09-25T04:57:43;14.33;;;12.93;;
7377;SDS011;3730;50.856;12.776;2022-09-25T05:00:09;13.80;;;12.40;;
7377;SDS011;3730;50.856;12.776;2022-09-25T05:02:35;15.47;;;13.83;;
7377;SDS011;3730;50.856;12.776;2022-09-25T05:05:02;16.00;;;14.40;;
7377;SDS011;3730;50.856;12.776;2022-09-25T05:07:28;15.97;;;14.37;;
7377;SDS011;3730;50.856;12.776;2022-09-25T05:09:54;17.20;;;15.40;;
7377;SDS011;3730;50.856;12.776;2022-09-25T05:12:20;16.33;;;14.63;;
7377;SDS011;3730;50.856;12.776;2022-09-25T05:14:46;17.53;;;15.73;;
7377;SDS011;3730;50.856;12.776;2022-09-25T05:17:11;18.83;;;15.97;;
7377;SDS011;3730;50.856;12.776;2022-09-25T05:19:37;19.40;;;17.40;;
7377;SDS011;3730;50.856;12.776;2022-09-25T05:22:04;18.67;;;16.67;;
7377;SDS011;3730;50.856;12.776;2022-09-25T05:24:30;19.30;;;17.10;;
7377;SDS011;3730;50.856;12.776;2022-09-25T05:26:56;23.97;;;16.33;;
7377;SDS011;3730;50.856;12.776;2022-09-25T05:29:23;18.83;;;16.83;;
7377;SDS011;3730;50.856;12.776;2022-09-25T05:31:48;19.83;;;17.63;;
7377;SDS011;3730;50.856;12.776;2022-09-25T05:34:14;19.73;;;17.63;;
7377;SDS011;3730;50.856;12.776;2022-09-25T05:36:40;18.50;;;16.60;;
7377;SDS011;3730;50.856;12.776;2022-09-25T05:39:07;17.63;;;15.83;;
7377;SDS011;3730;50.856;12.776;2022-09-25T05:41:34;19.67;;;17.67;;
7377;SDS011;3730;50.856;12.776;2022-09-25T05:44:00;16.60;;;15.00;;
7377;SDS011;3730;50.856;12.776;2022-09-25T05:46:31;19.73;;;16.63;;
7377;SDS011;3730;50.856;12.776;2022-09-25T05:48:59;20.60;;;16.97;;
7377;SDS011;3730;50.856;12.776;2022-09-25T05:51:24;19.57;;;16.67;;
7377;SDS011;3730;50.856;12.776;2022-09-25T05:53:51;17.73;;;15.83;;
7377;SDS011;3730;50.856;12.776;2022-09-25T05:56:18;19.20;;;17.17;;
7377;SDS011;3730;50.856;12.776;2022-09-25T05:58:44;18.43;;;16.63;;
7377;SDS011;3730;50.856;12.776;2022-09-25T06:01:10;18.83;;;16.90;;
7377;SDS011;3730;50.856;12.776;2022-09-25T06:03:35;21.47;;;19.17;;
7377;SDS011;3730;50.856;12.776;2022-09-25T06:06:01;19.60;;;17.60;;
7377;SDS011;3730;50.856;12.776;2022-09-25T06:08:27;20.43;;;18.27;;
7377;SDS011;3730;50.856;12.776;2022-09-25T06:10:56;20.60;;;18.40;;
7377;SDS011;3730;50.856;12.776;2022-09-25T06:13:22;19.97;;;17.93;;
7377;SDS011;3730;50.856;12.776;2022-09-25T06:15:49;21.63;;;19.43;;
7377;SDS011;3730;50.856;12.776;2022-09-25T06:18:17;19.40;;;17.30;;
7377;SDS011;3730;50.856;12.776;2022-09-25T06:20:47;20.13;;;17.97;;
7377;SDS011;3730;50.856;12.776;2022-09-25T06:23:13;20.13;;;18.03;;
7377;SDS011;3730;50.856;12.776;2022-09-25T06:25:40;21.40;;;19.10;;
7377;SDS011;3730;50.856;12.776;2022-09-25T06:28:06;24.57;;;20.13;;
7377;SDS011;3730;50.856;12.776;2022-09-25T06:30:33;22.80;;;19.67;;
7377;SDS011;3730;50.856;12.776;2022-09-25T06:33:00;20.40;;;18.20;;
7377;SDS011;3730;50.856;12.776;2022-09-25T06:35:27;18.70;;;16.70;;
7377;SDS011;3730;50.856;12.776;2022-09-25T06:37:56;21.53;;;17.40;;
7377;SDS011;3730;50.856;12.776;2022-09-25T06:40:23;21.00;;;18.80;;
7377;SDS011;3730;50.856;12.776;2022-09-25T06:42:56;23.40;;;18.37;;
7377;SDS011;3730;50.856;12.776;2022-09-25T06:45:23;18.63;;;16.73;;
7377;SDS011;3730;50.856;12.776;2022-09-25T06:47:51;18.20;;;16.33;;
7377;SDS011;3730;50.856;12.776;2022-09-25T06:50:21;20.37;;;18.17;;
7377;SDS011;3730;50.856;12.776;2022-09-25T06:52:58;20.43;;;18.33;;
7377;SDS011;3730;50.856;12.776;2022-09-25T06:55:28;21.47;;;18.43;;
7377;SDS011;3730;50.856;12.776;2022-09-25T06:57:56;18.87;;;16.87;;
7377;SDS011;3730;50.856;12.776;2022-09-25T07:00:22;19.77;;;17.53;;
7377;SDS011;3730;50.856;12.776;2022-09-25T07:02:47;17.73;;;15.77;;
7377;SDS011;3730;50.856;12.776;2022-09-25T07:05:32;20.27;;;18.07;;
7377;SDS011;3730;50.856;12.776;2022-09-25T07:07:58;24.27;;;21.23;;
7377;SDS011;3730;50.856;12.776;2022-09-25T07:10:24;22.83;;;20.20;;
7377;SDS011;3730;50.856;12.776;2022-09-25T07:12:50;20.00;;;17.80;;
7377;SDS011;3730;50.856;12.776;2022-09-25T07:15:15;21.83;;;18.30;;
7377;SDS011;3730;50.856;12.776;2022-09-25T07:17:41;18.77;;;16.87;;
7377;SDS011;3730;50.856;12.776;2022-09-25T07:20:08;23.83;;;19.70;;
7377;SDS011;3730;50.856;12.776;2022-09-25T07:22:36;20.73;;;17.10;;
7377;SDS011;3730;50.856;12.776;2022-09-25T07:25:02;18.93;;;16.90;;
7377;SDS011;3730;50.856;12.776;2022-09-25T07:27:29;23.07;;;17.10;;
7377;SDS011;3730;50.856;12.776;2022-09-25T07:29:54;21.13;;;18.70;;
7377;SDS011;3730;50.856;12.776;2022-09-25T07:32:20;23.37;;;18.97;;
7377;SDS011;3730;50.856;12.776;2022-09-25T07:34:46;17.70;;;15.90;;
7377;SDS011;3730;50.856;12.776;2022-09-25T07:37:15;21.40;;;19.20;;
7377;SDS011;3730;50.856;12.776;2022-09-25T07:39:41;20.93;;;18.67;;
7377;SDS011;3730;50.856;12.776;2022-09-25T07:42:07;19.60;;;17.50;;
7377;SDS011;3730;50.856;12.776;2022-09-25T07:44:33;19.40;;;17.40;;
7377;SDS011;3730;50.856;12.776;2022-09-25T07:46:59;24.27;;;20.37;;
7377;SDS011;3730;50.856;12.776;2022-09-25T07:49:27;18.03;;;16.23;;
7377;SDS011;3730;50.856;12.776;2022-09-25T07:51:53;18.57;;;16.67;;
7377;SDS011;3730;50.856;12.776;2022-09-25T07:54:19;19.77;;;17.67;;
7377;SDS011;3730;50.856;12.776;2022-09-25T07:56:45;20.10;;;18.00;;
7377;SDS011;3730;50.856;12.776;2022-09-25T07:59:11;19.63;;;17.63;;
7377;SDS011;3730;50.856;12.776;2022-09-25T08:01:37;23.67;;;21.07;;
7377;SDS011;3730;50.856;12.776;2022-09-25T08:04:03;24.47;;;21.87;;
7377;SDS011;3730;50.856;12.776;2022-09-25T08:06:32;21.67;;;19.40;;
7377;SDS011;3730;50.856;12.776;2022-09-25T08:08:58;19.57;;;17.63;;
7377;SDS011;3730;50.856;12.776;2022-09-25T08:11:24;22.77;;;19.37;;
7377;SDS011;3730;50.856;12.776;2022-09-25T08:13:52;19.43;;;17.37;;
7377;SDS011;3730;50.856;12.776;2022-09-25T08:16:18;18.77;;;16.77;;
7377;SDS011;3730;50.856;12.776;2022-09-25T08:18:46;18.60;;;16.70;;
7377;SDS011;3730;50.856;12.776;2022-09-25T08:21:16;20.23;;;17.97;;
7377;SDS011;3730;50.856;12.776;2022-09-25T08:23:44;18.93;;;16.53;;
7377;SDS011;3730;50.856;12.776;2022-09-25T08:26:10;19.03;;;17.13;;
7377;SDS011;3730;50.856;12.776;2022-09-25T08:28:36;17.50;;;15.57;;
7377;SDS011;3730;50.856;12.776;2022-09-25T08:31:03;20.03;;;17.93;;
7377;SDS011;3730;50.856;12.776;2022-09-25T08:33:29;18.77;;;16.63;;
7377;SDS011;3730;50.856;12.776;2022-09-25T08:35:57;17.87;;;16.00;;
7377;SDS011;3730;50.856;12.776;2022-09-25T08:38:24;19.70;;;17.60;;
7377;SDS011;3730;50.856;12.776;2022-09-25T08:40:53;18.33;;;16.37;;
7377;SDS011;3730;50.856;12.776;2022-09-25T08:43:21;15.83;;;14.23;;
7377;SDS011;3730;50.856;12.776;2022-09-25T08:45:48;17.93;;;16.10;;
7377;SDS011;3730;50.856;12.776;2022-09-25T08:48:35;15.27;;;13.80;;
7377;SDS011;3730;50.856;12.776;2022-09-25T08:51:20;18.90;;;16.90;;
7377;SDS011;3730;50.856;12.776;2022-09-25T08:53:46;14.73;;;13.03;;
7377;SDS011;3730;50.856;12.776;2022-09-25T08:56:13;14.57;;;13.17;;
7377;SDS011;3730;50.856;12.776;2022-09-25T09:01:13;17.10;;;15.43;;
7377;SDS011;3730;50.856;12.776;2022-09-25T09:03:45;19.13;;;15.73;;
7377;SDS011;3730;50.856;12.776;2022-09-25T09:06:13;15.67;;;14.17;;
7377;SDS011;3730;50.856;12.776;2022-09-25T09:08:40;14.73;;;13.33;;
7377;SDS011;3730;50.856;12.776;2022-09-25T09:11:11;13.00;;;11.80;;
7377;SDS011;3730;50.856;12.776;2022-09-25T09:16:41;18.60;;;15.60;;
7377;SDS011;3730;50.856;12.776;2022-09-25T09:19:08;15.37;;;13.77;;
7377;SDS011;3730;50.856;12.776;2022-09-25T09:24:17;17.10;;;15.50;;
7377;SDS011;3730;50.856;12.776;2022-09-25T09:34:33;20.80;;;17.53;;
7377;SDS011;3730;50.856;12.776;2022-09-25T09:37:12;17.90;;;16.17;;
7377;SDS011;3730;50.856;12.776;2022-09-25T09:42:36;14.03;;;12.63;;
7377;SDS011;3730;50.856;12.776;2022-09-25T09:45:24;16.23;;;13.87;;
7377;SDS011;3730;50.856;12.776;2022-09-25T09:53:04;17.13;;;15.43;;
7377;SDS011;3730;50.856;12.776;2022-09-25T09:55:42;19.17;;;17.00;;
7377;SDS011;3730;50.856;12.776;2022-09-25T09:58:12;16.90;;;15.20;;
7377;SDS011;3730;50.856;12.776;2022-09-25T10:00:43;15.63;;;13.90;;
7377;SDS011;3730;50.856;12.776;2022-09-25T10:03:16;18.23;;;16.50;;
7377;SDS011;3730;50.856;12.776;2022-09-25T10:05:46;16.97;;;15.27;;
7377;SDS011;3730;50.856;12.776;2022-09-25T10:08:13;15.67;;;14.17;;
7377;SDS011;3730;50.856;12.776;2022-09-25T10:10:41;19.30;;;15.07;;
7377;SDS011;3730;50.856;12.776;2022-09-25T10:13:30;15.77;;;14.17;;
7377;SDS011;3730;50.856;12.776;2022-09-25T10:16:04;15.40;;;13.80;;
7377;SDS011;3730;50.856;12.776;2022-09-25T10:18:37;16.10;;;14.40;;
7377;SDS011;3730;50.856;12.776;2022-09-25T10:23:35;17.13;;;15.53;;
7377;SDS011;3730;50.856;12.776;2022-09-25T10:26:03;18.03;;;16.23;;
7377;SDS011;3730;50.856;12.776;2022-09-25T10:28:31;15.63;;;13.93;;
7377;SDS011;3730;50.856;12.776;2022-09-25T10:30:58;15.10;;;13.57;;
7377;SDS011;3730;50.856;12.776;2022-09-25T10:33:26;15.40;;;13.90;;
7377;SDS011;3730;50.856;12.776;2022-09-25T10:35:52;16.17;;;13.87;;
7377;SDS011;3730;50.856;12.776;2022-09-25T10:38:33;16.90;;;15.27;;
7377;SDS011;3730;50.856;12.776;2022-09-25T10:41:05;16.33;;;14.63;;
7377;SDS011;3730;50.856;12.776;2022-09-25T10:43:31;18.43;;;16.37;;
7377;SDS011;3730;50.856;12.776;2022-09-25T10:46:13;13.17;;;11.90;;
7377;SDS011;3730;50.856;12.776;2022-09-25T10:48:39;13.33;;;11.93;;
7377;SDS011;3730;50.856;12.776;2022-09-25T10:51:24;13.23;;;11.93;;
7377;SDS011;3730;50.856;12.776;2022-09-25T10:54:24;11.97;;;10.83;;
7377;SDS011;3730;50.856;12.776;2022-09-25T10:56:43;13.37;;;11.97;;
7377;SDS011;3730;50.856;12.776;2022-09-25T10:59:12;14.30;;;12.90;;
7377;SDS011;3730;50.856;12.776;2022-09-25T11:01:42;13.10;;;11.83;;
7377;SDS011;3730;50.856;12.776;2022-09-25T11:04:27;13.50;;;12.20;;
7377;SDS011;3730;50.856;12.776;2022-09-25T11:06:57;12.07;;;10.97;;
7377;SDS011;3730;50.856;12.776;2022-09-25T11:09:25;13.90;;;12.57;;
7377;SDS011;3730;50.856;12.776;2022-09-25T11:11:52;13.07;;;11.30;;
7377;SDS011;3730;50.856;12.776;2022-09-25T11:14:23;13.07;;;11.37;;
7377;SDS011;3730;50.856;12.776;2022-09-25T11:16:56;13.83;;;12.33;;
7377;SDS011;3730;50.856;12.776;2022-09-25T11:19:24;12.80;;;11.30;;
7377;SDS011;3730;50.856;12.776;2022-09-25T11:21:54;10.53;;;9.17;;
7377;SDS011;3730;50.856;12.776;2022-09-25T11:27:10;11.37;;;10.17;;
7377;SDS011;3730;50.856;12.776;2022-09-25T11:30:12;15.00;;;9.80;;
7377;SDS011;3730;50.856;12.776;2022-09-25T11:40:20;10.83;;;9.73;;
7377;SDS011;3730;50.856;12.776;2022-09-25T11:43:11;10.33;;;9.43;;
7377;SDS011;3730;50.856;12.776;2022-09-25T11:45:43;11.30;;;10.20;;
7377;SDS011;3730;50.856;12.776;2022-09-25T11:50:44;12.27;;;9.80;;
7377;SDS011;3730;50.856;12.776;2022-09-25T11:53:35;11.47;;;10.37;;
7377;SDS011;3730;50.856;12.776;2022-09-25T11:58:49;10.23;;;9.10;;
7377;SDS011;3730;50.856;12.776;2022-09-25T12:06:35;10.17;;;9.17;;
7377;SDS011;3730;50.856;12.776;2022-09-25T12:11:45;9.03;;;8.20;;
7377;SDS011;3730;50.856;12.776;2022-09-25T12:19:13;9.50;;;8.20;;
7377;SDS011;3730;50.856;12.776;2022-09-25T12:39:41;9.53;;;8.57;;
7377;SDS011;3730;50.856;12.776;2022-09-25T12:47:43;7.80;;;7.10;;
7377;SDS011;3730;50.856;12.776;2022-09-25T12:50:18;8.30;;;7.60;;
7377;SDS011;3730;50.856;12.776;2022-09-25T12:52:52;6.97;;;6.27;;
7377;SDS011;3730;50.856;12.776;2022-09-25T12:58:01;8.20;;;7.40;;
7377;SDS011;3730;50.856;12.776;2022-09-25T13:00:29;8.27;;;7.47;;
7377;SDS011;3730;50.856;12.776;2022-09-25T13:03:10;8.47;;;7.50;;
7377;SDS011;3730;50.856;12.776;2022-09-25T13:05:49;8.17;;;7.47;;
7377;SDS011;3730;50.856;12.776;2022-09-25T13:08:32;8.70;;;7.90;;
7377;SDS011;3730;50.856;12.776;2022-09-25T13:13:31;8.13;;;7.43;;
7377;SDS011;3730;50.856;12.776;2022-09-25T13:16:00;8.97;;;8.17;;
7377;SDS011;3730;50.856;12.776;2022-09-25T13:18:27;9.00;;;8.20;;
7377;SDS011;3730;50.856;12.776;2022-09-25T13:20:57;9.40;;;8.17;;
7377;SDS011;3730;50.856;12.776;2022-09-25T13:23:36;8.33;;;7.43;;
7377;SDS011;3730;50.856;12.776;2022-09-25T13:26:08;8.60;;;7.80;;
7377;SDS011;3730;50.856;12.776;2022-09-25T13:28:36;10.63;;;8.70;;
7377;SDS011;3730;50.856;12.776;2022-09-25T13:31:09;9.40;;;7.57;;
7377;SDS011;3730;50.856;12.776;2022-09-25T13:34:21;8.23;;;7.43;;
7377;SDS011;3730;50.856;12.776;2022-09-25T13:38:56;7.53;;;6.77;;
7377;SDS011;3730;50.856;12.776;2022-09-25T13:41:46;7.40;;;6.70;;
7377;SDS011;3730;50.856;12.776;2022-09-25T13:50:25;8.60;;;7.70;;
7377;SDS011;3730;50.856;12.776;2022-09-25T13:58:00;7.43;;;6.83;;
7377;SDS011;3730;50.856;12.776;2022-09-25T14:03:00;7.00;;;6.47;;
7377;SDS011;3730;50.856;12.776;2022-09-25T14:05:30;8.43;;;7.63;;
7377;SDS011;3730;50.856;12.776;2022-09-25T14:08:06;7.63;;;7.00;;
7377;SDS011;3730;50.856;12.776;2022-09-25T14:10:33;7.40;;;6.57;;
7377;SDS011;3730;50.856;12.776;2022-09-25T14:12:59;6.93;;;6.33;;
7377;SDS011;3730;50.856;12.776;2022-09-25T14:15:33;7.00;;;6.30;;
7377;SDS011;3730;50.856;12.776;2022-09-25T14:18:00;7.00;;;6.30;;
7377;SDS011;3730;50.856;12.776;2022-09-25T14:20:33;6.43;;;5.93;;
7377;SDS011;3730;50.856;12.776;2022-09-25T14:25:38;7.00;;;6.30;;
7377;SDS011;3730;50.856;12.776;2022-09-25T14:28:27;7.43;;;6.70;;
7377;SDS011;3730;50.856;12.776;2022-09-25T14:33:28;7.00;;;6.33;;
7377;SDS011;3730;50.856;12.776;2022-09-25T14:36:00;6.23;;;5.63;;
7377;SDS011;3730;50.856;12.776;2022-09-25T14:38:41;6.40;;;5.90;;
7377;SDS011;3730;50.856;12.776;2022-09-25T14:46:27;7.33;;;6.57;;
7377;SDS011;3730;50.856;12.776;2022-09-25T14:48:55;7.13;;;6.53;;
7377;SDS011;3730;50.856;12.776;2022-09-25T14:51:23;6.50;;;5.90;;
7377;SDS011;3730;50.856;12.776;2022-09-25T14:54:12;6.63;;;6.03;;
7377;SDS011;3730;50.856;12.776;2022-09-25T14:56:38;7.23;;;6.63;;
7377;SDS011;3730;50.856;12.776;2022-09-25T14:59:09;8.23;;;7.43;;
7377;SDS011;3730;50.856;12.776;2022-09-25T15:01:36;8.67;;;7.30;;
7377;SDS011;3730;50.856;12.776;2022-09-25T15:04:09;6.60;;;6.00;;
7377;SDS011;3730;50.856;12.776;2022-09-25T15:06:36;5.10;;;4.70;;
7377;SDS011;3730;50.856;12.776;2022-09-25T15:11:52;4.93;;;4.53;;
7377;SDS011;3730;50.856;12.776;2022-09-25T15:14:18;4.70;;;4.30;;
7377;SDS011;3730;50.856;12.776;2022-09-25T15:16:44;5.37;;;4.40;;
7377;SDS011;3730;50.856;12.776;2022-09-25T15:19:34;4.93;;;3.43;;
7377;SDS011;3730;50.856;12.776;2022-09-25T15:22:01;4.53;;;3.20;;
7377;SDS011;3730;50.856;12.776;2022-09-25T15:24:32;3.33;;;2.93;;
7377;SDS011;3730;50.856;12.776;2022-09-25T15:27:00;2.63;;;2.43;;
7377;SDS011;3730;50.856;12.776;2022-09-25T15:29:28;2.20;;;2.10;;
7377;SDS011;3730;50.856;12.776;2022-09-25T15:31:55;1.67;;;1.57;;
7377;SDS011;3730;50.856;12.776;2022-09-25T15:34:23;2.07;;;1.87;;
7377;SDS011;3730;50.856;12.776;2022-09-25T15:36:50;2.67;;;1.80;;
7377;SDS011;3730;50.856;12.776;2022-09-25T15:39:22;2.00;;;1.83;;
7377;SDS011;3730;50.856;12.776;2022-09-25T15:41:49;2.17;;;2.00;;
7377;SDS011;3730;50.856;12.776;2022-09-25T15:44:19;2.40;;;2.20;;
7377;SDS011;3730;50.856;12.776;2022-09-25T15:46:47;2.00;;;1.87;;
7377;SDS011;3730;50.856;12.776;2022-09-25T15:49:14;2.80;;;1.80;;
7377;SDS011;3730;50.856;12.776;2022-09-25T15:51:44;1.80;;;1.70;;
7377;SDS011;3730;50.856;12.776;2022-09-25T15:56:52;1.33;;;1.27;;
7377;SDS011;3730;50.856;12.776;2022-09-25T15:59:28;1.27;;;1.17;;
7377;SDS011;3730;50.856;12.776;2022-09-25T16:01:55;1.40;;;1.30;;
7377;SDS011;3730;50.856;12.776;2022-09-25T16:04:45;2.13;;;1.20;;
7377;SDS011;3730;50.856;12.776;2022-09-25T16:07:26;1.90;;;1.50;;
7377;SDS011;3730;50.856;12.776;2022-09-25T16:09:56;2.47;;;1.40;;
7377;SDS011;3730;50.856;12.776;2022-09-25T16:17:50;1.53;;;1.43;;
7377;SDS011;3730;50.856;12.776;2022-09-25T16:22:49;2.13;;;1.93;;
7377;SDS011;3730;50.856;12.776;2022-09-25T16:25:36;2.30;;;2.10;;
7377;SDS011;3730;50.856;12.776;2022-09-25T16:28:17;2.90;;;2.70;;
7377;SDS011;3730;50.856;12.776;2022-09-25T16:30:59;2.67;;;2.47;;
7377;SDS011;3730;50.856;12.776;2022-09-25T16:33:29;2.90;;;2.70;;
7377;SDS011;3730;50.856;12.776;2022-09-25T16:36:03;3.23;;;3.03;;
7377;SDS011;3730;50.856;12.776;2022-09-25T16:41:05;5.60;;;4.30;;
7377;SDS011;3730;50.856;12.776;2022-09-25T16:43:32;4.00;;;3.60;;
7377;SDS011;3730;50.856;12.776;2022-09-25T16:46:11;4.33;;;3.43;;
7377;SDS011;3730;50.856;12.776;2022-09-25T16:48:37;3.77;;;3.47;;
7377;SDS011;3730;50.856;12.776;2022-09-25T16:51:04;4.50;;;3.50;;
7377;SDS011;3730;50.856;12.776;2022-09-25T16:53:35;4.17;;;3.77;;
7377;SDS011;3730;50.856;12.776;2022-09-25T16:56:01;4.40;;;3.97;;
7377;SDS011;3730;50.856;12.776;2022-09-25T16:58:27;3.93;;;3.57;;
7377;SDS011;3730;50.856;12.776;2022-09-25T17:00:53;3.67;;;3.33;;
7377;SDS011;3730;50.856;12.776;2022-09-25T17:03:19;3.53;;;3.13;;
7377;SDS011;3730;50.856;12.776;2022-09-25T17:05:46;3.30;;;3.00;;
7377;SDS011;3730;50.856;12.776;2022-09-25T17:08:19;3.03;;;2.83;;
7377;SDS011;3730;50.856;12.776;2022-09-25T17:10:46;3.27;;;2.97;;
7377;SDS011;3730;50.856;12.776;2022-09-25T17:13:14;3.87;;;3.40;;
7377;SDS011;3730;50.856;12.776;2022-09-25T17:15:41;3.30;;;2.90;;
7377;SDS011;3730;50.856;12.776;2022-09-25T17:18:13;3.37;;;3.10;;
7377;SDS011;3730;50.856;12.776;2022-09-25T17:20:39;3.50;;;3.20;;
7377;SDS011;3730;50.856;12.776;2022-09-25T17:23:05;3.30;;;3.00;;
7377;SDS011;3730;50.856;12.776;2022-09-25T17:28:04;3.40;;;3.10;;
7377;SDS011;3730;50.856;12.776;2022-09-25T17:30:30;3.67;;;3.37;;
7377;SDS011;3730;50.856;12.776;2022-09-25T17:32:56;3.63;;;3.33;;
7377;SDS011;3730;50.856;12.776;2022-09-25T17:38:07;3.20;;;3.00;;